Terminal Aerodrome Forecast
Issued by NWS Mt. Holly, NJ

Home | Current Version | Previous Version | Text Only | Print | Product List | Glossary On
Versions: 1 2 3 4 5 6 7 8 9 10 11 12 13 14 15 16 17 18 19 20 21 22 23 24 25 26 27 28 29 30 31 32 33 34 35 36 37
000
FTAK31 PANC 272109 AAB
TAFABE
TAF AMD
PABE 272109Z 2721/2818 14010G20KT 3SM -RA BKN005 BKN015 OVC030
     FM272200 13012G19KT P6SM BKN010 BKN015 OVC030
     FM280300 22006KT P6SM BKN050
     FM281400 23006KT P6SM VCFG BKN008=

USA.gov is the U.S. government's official web portal to all federal, state and local government web resources and services.